Penfld, Georgia
Current Conditions -  °F | °C
As of 3:15 PM on Thursday 18 Dec 2014 (Local Time) from K3J7 Reporting Station
Overcast Overcast  
Wind Chill: 59°   Ceiling: 11000
Heat Index: 59°   Visibility: 10mi
Dew Point: 37°   Wind: 3mph
Humidity: 45%   Direction: 250°WSW
Pressure: 30.06"   Gusts: NA
Location:  33.6722°N, 83.1249°W
Report Text: K3J7 182015Z AUTO 25003KT 10SM OVC110 15/03 A3006 RMK AO2
Loading
Personal Weather Stations






























Interactive Weather Map New forecast layout! Learn more

10-Day Weather Forecast

Advertisements
Track Severe Weather on mobile